Portada
METAR-TAF:

METAR-TAF

Aeroports :

Bombai, Índia

latitud: 19-07N, longitud: 072-51E, altitud: 8 m

Observació

L'informe es va fer fa 24 minuts, a les 02:00 UTC
Vent calma
Temperatura 29°C
Humitat 79%
Pressió 1010 hPa
Visibilitat: 3000 m
Núvols disperses a una alçada de 2000 ft
calitja

METAR: VABB 200200Z 00000KT 3000 HZ SCT020 29/25 Q1010 NOSIG

Hora: 07:54 (02:24 UTC)

Pronòstic

L'informe es va fer fa 3 hores i 24 minuts, a les 23:00 UTC
Pronòstic vàlid del 20 a les 00 UTC al 20 a les 09 UTC
Vent kt del Nord
Visibilitat: 3000 m
Escasses núvols a una alçada de 2000 ft
calitja
Evolucionant progressivament
l' 20 a les 03 UTC al 20 a les 05 UTC
Vent 6 kt del Nord-Oest
Visibilitat: 4000 m
calitja
Evolucionant progressivament
l' 20 a les 07 UTC al 20 a les 09 UTC
Vent 7 kt del Nord-Oest amb ràfegues de 17 kt
Visibilitat: 6000 m

TAF: VABB 192300Z 2000/2009 00000KT 3000 HZ FEW020 BECMG 2003/2005 32006KT 4000 HZ BECMG 2007/2009 31007G17KT 6000

Observacions i pronòstics meteorològics de més de 4000 aeroports (METAR i TAF).

Les estacions disponibles són els punts grocs i vermells al mapa.

Posi el ratolí al punt desitjat per veure el nom de l'estació.

Feu clic per veure les observacions i els pronòstics meteorològics.

Per canviar el mapa: feu clic els botons verds amb una creu de color negre per apropar; al botó verd amb un guió per allunyar la imatge; o en les fletxes verdes per a mapes adjacents.


METAR-TAF: